sensor_id;sensor_type;location;lat;lon;timestamp;P1;durP1;ratioP1;P2;durP2;ratioP2
16407;SDS011;8313;49.894;8.084;2023-02-24T00:00:06;13.90;;;7.80;;
16407;SDS011;8313;49.894;8.084;2023-02-24T00:02:52;17.27;;;7.63;;
16407;SDS011;8313;49.894;8.084;2023-02-24T00:05:18;10.60;;;6.43;;
16407;SDS011;8313;49.894;8.084;2023-02-24T00:07:44;16.30;;;7.63;;
16407;SDS011;8313;49.894;8.084;2023-02-24T00:10:10;16.40;;;8.03;;
16407;SDS011;8313;49.894;8.084;2023-02-24T00:12:43;14.30;;;7.70;;
16407;SDS011;8313;49.894;8.084;2023-02-24T00:15:11;14.83;;;8.17;;
16407;SDS011;8313;49.894;8.084;2023-02-24T00:17:39;13.77;;;7.23;;
16407;SDS011;8313;49.894;8.084;2023-02-24T00:20:05;20.93;;;8.27;;
16407;SDS011;8313;49.894;8.084;2023-02-24T00:22:31;17.57;;;8.40;;
16407;SDS011;8313;49.894;8.084;2023-02-24T00:24:57;17.43;;;8.53;;
16407;SDS011;8313;49.894;8.084;2023-02-24T00:27:26;20.17;;;9.73;;
16407;SDS011;8313;49.894;8.084;2023-02-24T00:29:55;16.03;;;8.30;;
16407;SDS011;8313;49.894;8.084;2023-02-24T00:32:21;23.60;;;9.87;;
16407;SDS011;8313;49.894;8.084;2023-02-24T00:34:46;15.43;;;7.73;;
16407;SDS011;8313;49.894;8.084;2023-02-24T00:37:12;20.77;;;8.97;;
16407;SDS011;8313;49.894;8.084;2023-02-24T00:39:39;19.23;;;8.30;;
16407;SDS011;8313;49.894;8.084;2023-02-24T00:42:05;17.37;;;8.23;;
16407;SDS011;8313;49.894;8.084;2023-02-24T00:44:37;18.07;;;9.07;;
16407;SDS011;8313;49.894;8.084;2023-02-24T00:47:05;22.13;;;9.00;;
16407;SDS011;8313;49.894;8.084;2023-02-24T00:49:33;20.10;;;8.40;;
16407;SDS011;8313;49.894;8.084;2023-02-24T00:52:01;19.73;;;8.37;;
16407;SDS011;8313;49.894;8.084;2023-02-24T00:54:28;17.07;;;7.37;;
16407;SDS011;8313;49.894;8.084;2023-02-24T00:56:54;17.67;;;8.00;;
16407;SDS011;8313;49.894;8.084;2023-02-24T00:59:21;19.17;;;8.23;;
16407;SDS011;8313;49.894;8.084;2023-02-24T01:01:52;15.87;;;7.53;;
16407;SDS011;8313;49.894;8.084;2023-02-24T01:04:19;20.13;;;8.63;;
16407;SDS011;8313;49.894;8.084;2023-02-24T01:06:49;22.73;;;10.17;;
16407;SDS011;8313;49.894;8.084;2023-02-24T01:09:17;17.90;;;8.47;;
16407;SDS011;8313;49.894;8.084;2023-02-24T01:11:44;21.83;;;8.80;;
16407;SDS011;8313;49.894;8.084;2023-02-24T01:14:31;18.43;;;8.20;;
16407;SDS011;8313;49.894;8.084;2023-02-24T01:16:58;24.97;;;8.63;;
16407;SDS011;8313;49.894;8.084;2023-02-24T01:19:26;22.87;;;9.50;;
16407;SDS011;8313;49.894;8.084;2023-02-24T01:21:58;16.83;;;7.23;;
16407;SDS011;8313;49.894;8.084;2023-02-24T01:24:26;13.63;;;7.00;;
16407;SDS011;8313;49.894;8.084;2023-02-24T01:26:52;13.23;;;7.43;;
16407;SDS011;8313;49.894;8.084;2023-02-24T01:29:19;21.47;;;8.77;;
16407;SDS011;8313;49.894;8.084;2023-02-24T01:31:47;14.67;;;6.57;;
16407;SDS011;8313;49.894;8.084;2023-02-24T01:34:16;18.90;;;7.93;;
16407;SDS011;8313;49.894;8.084;2023-02-24T01:36:41;16.87;;;8.30;;
16407;SDS011;8313;49.894;8.084;2023-02-24T01:39:08;19.13;;;8.00;;
16407;SDS011;8313;49.894;8.084;2023-02-24T01:41:39;16.87;;;8.53;;
16407;SDS011;8313;49.894;8.084;2023-02-24T01:46:34;20.50;;;8.80;;
16407;SDS011;8313;49.894;8.084;2023-02-24T01:51:43;17.90;;;8.37;;
16407;SDS011;8313;49.894;8.084;2023-02-24T01:54:13;19.23;;;8.60;;
16407;SDS011;8313;49.894;8.084;2023-02-24T01:56:43;17.67;;;8.10;;
16407;SDS011;8313;49.894;8.084;2023-02-24T01:59:11;18.30;;;9.20;;
16407;SDS011;8313;49.894;8.084;2023-02-24T02:01:40;21.63;;;9.13;;
16407;SDS011;8313;49.894;8.084;2023-02-24T02:04:13;19.70;;;8.70;;
16407;SDS011;8313;49.894;8.084;2023-02-24T02:06:44;17.93;;;8.23;;
16407;SDS011;8313;49.894;8.084;2023-02-24T02:09:12;19.70;;;9.13;;
16407;SDS011;8313;49.894;8.084;2023-02-24T02:11:39;19.57;;;9.00;;
16407;SDS011;8313;49.894;8.084;2023-02-24T02:14:06;20.30;;;7.97;;
16407;SDS011;8313;49.894;8.084;2023-02-24T02:16:47;17.20;;;7.70;;
16407;SDS011;8313;49.894;8.084;2023-02-24T02:19:23;19.93;;;9.70;;
16407;SDS011;8313;49.894;8.084;2023-02-24T02:27:39;14.50;;;7.97;;
16407;SDS011;8313;49.894;8.084;2023-02-24T02:52:52;21.23;;;9.20;;
16407;SDS011;8313;49.894;8.084;2023-02-24T02:55:29;23.83;;;11.20;;
16407;SDS011;8313;49.894;8.084;2023-02-24T02:58:13;30.47;;;12.37;;
16407;SDS011;8313;49.894;8.084;2023-02-24T03:00:51;24.17;;;10.87;;
16407;SDS011;8313;49.894;8.084;2023-02-24T03:03:37;26.23;;;11.20;;
16407;SDS011;8313;49.894;8.084;2023-02-24T03:06:18;19.43;;;10.00;;
16407;SDS011;8313;49.894;8.084;2023-02-24T03:09:02;23.93;;;10.57;;
16407;SDS011;8313;49.894;8.084;2023-02-24T03:11:40;24.37;;;11.07;;
16407;SDS011;8313;49.894;8.084;2023-02-24T03:14:10;32.00;;;11.77;;
16407;SDS011;8313;49.894;8.084;2023-02-24T03:16:38;22.33;;;10.27;;
16407;SDS011;8313;49.894;8.084;2023-02-24T03:19:07;25.90;;;11.30;;
16407;SDS011;8313;49.894;8.084;2023-02-24T03:21:38;25.33;;;10.50;;
16407;SDS011;8313;49.894;8.084;2023-02-24T03:24:07;23.03;;;10.63;;
16407;SDS011;8313;49.894;8.084;2023-02-24T03:26:46;27.40;;;11.53;;
16407;SDS011;8313;49.894;8.084;2023-02-24T03:29:28;27.80;;;10.87;;
16407;SDS011;8313;49.894;8.084;2023-02-24T03:32:05;25.07;;;11.10;;
16407;SDS011;8313;49.894;8.084;2023-02-24T03:37:07;18.73;;;8.57;;
16407;SDS011;8313;49.894;8.084;2023-02-24T03:39:33;23.27;;;10.73;;
16407;SDS011;8313;49.894;8.084;2023-02-24T03:42:18;21.53;;;9.70;;
16407;SDS011;8313;49.894;8.084;2023-02-24T03:44:45;23.87;;;10.77;;
16407;SDS011;8313;49.894;8.084;2023-02-24T03:47:12;29.50;;;10.80;;
16407;SDS011;8313;49.894;8.084;2023-02-24T03:49:40;22.20;;;9.93;;
16407;SDS011;8313;49.894;8.084;2023-02-24T03:55:14;24.17;;;9.80;;
16407;SDS011;8313;49.894;8.084;2023-02-24T04:05:30;25.70;;;10.70;;
16407;SDS011;8313;49.894;8.084;2023-02-24T04:08:03;21.10;;;10.00;;
16407;SDS011;8313;49.894;8.084;2023-02-24T04:18:52;22.20;;;10.63;;
16407;SDS011;8313;49.894;8.084;2023-02-24T04:21:24;26.60;;;12.17;;
16407;SDS011;8313;49.894;8.084;2023-02-24T04:23:52;20.90;;;9.70;;
16407;SDS011;8313;49.894;8.084;2023-02-24T04:26:19;27.13;;;11.87;;
16407;SDS011;8313;49.894;8.084;2023-02-24T04:28:49;21.10;;;9.40;;
16407;SDS011;8313;49.894;8.084;2023-02-24T04:31:16;26.17;;;10.70;;
16407;SDS011;8313;49.894;8.084;2023-02-24T04:33:45;25.93;;;11.77;;
16407;SDS011;8313;49.894;8.084;2023-02-24T04:36:16;27.10;;;10.60;;
16407;SDS011;8313;49.894;8.084;2023-02-24T04:38:43;25.73;;;11.77;;
16407;SDS011;8313;49.894;8.084;2023-02-24T04:41:10;22.63;;;10.30;;
16407;SDS011;8313;49.894;8.084;2023-02-24T04:43:42;24.93;;;10.43;;
16407;SDS011;8313;49.894;8.084;2023-02-24T04:46:09;27.93;;;12.57;;
16407;SDS011;8313;49.894;8.084;2023-02-24T04:48:34;23.13;;;9.90;;
16407;SDS011;8313;49.894;8.084;2023-02-24T04:51:00;25.30;;;11.00;;
16407;SDS011;8313;49.894;8.084;2023-02-24T04:53:26;25.47;;;11.17;;
16407;SDS011;8313;49.894;8.084;2023-02-24T04:55:53;21.60;;;10.40;;
16407;SDS011;8313;49.894;8.084;2023-02-24T04:58:21;26.67;;;11.53;;
16407;SDS011;8313;49.894;8.084;2023-02-24T05:00:52;25.03;;;12.00;;
16407;SDS011;8313;49.894;8.084;2023-02-24T05:03:19;24.60;;;12.30;;
16407;SDS011;8313;49.894;8.084;2023-02-24T05:05:47;25.83;;;11.03;;
16407;SDS011;8313;49.894;8.084;2023-02-24T05:08:20;23.83;;;9.73;;
16407;SDS011;8313;49.894;8.084;2023-02-24T05:10:46;22.63;;;11.53;;
16407;SDS011;8313;49.894;8.084;2023-02-24T05:13:13;29.87;;;12.23;;
16407;SDS011;8313;49.894;8.084;2023-02-24T05:15:41;20.60;;;10.20;;
16407;SDS011;8313;49.894;8.084;2023-02-24T05:18:09;28.73;;;11.40;;
16407;SDS011;8313;49.894;8.084;2023-02-24T05:20:42;30.57;;;12.70;;
16407;SDS011;8313;49.894;8.084;2023-02-24T05:23:31;26.67;;;12.60;;
16407;SDS011;8313;49.894;8.084;2023-02-24T05:25:59;25.00;;;12.17;;
16407;SDS011;8313;49.894;8.084;2023-02-24T05:28:26;23.90;;;12.53;;
16407;SDS011;8313;49.894;8.084;2023-02-24T05:31:02;29.43;;;10.47;;
16407;SDS011;8313;49.894;8.084;2023-02-24T05:33:32;23.13;;;11.80;;
16407;SDS011;8313;49.894;8.084;2023-02-24T05:36:01;25.27;;;10.83;;
16407;SDS011;8313;49.894;8.084;2023-02-24T05:38:28;25.07;;;10.87;;
16407;SDS011;8313;49.894;8.084;2023-02-24T05:40:54;20.00;;;10.23;;
16407;SDS011;8313;49.894;8.084;2023-02-24T05:43:29;25.00;;;10.50;;
16407;SDS011;8313;49.894;8.084;2023-02-24T05:45:58;20.67;;;9.80;;
16407;SDS011;8313;49.894;8.084;2023-02-24T05:48:27;27.27;;;11.00;;
16407;SDS011;8313;49.894;8.084;2023-02-24T05:50:53;24.13;;;9.90;;
16407;SDS011;8313;49.894;8.084;2023-02-24T05:53:19;26.10;;;10.83;;
16407;SDS011;8313;49.894;8.084;2023-02-24T05:55:47;18.70;;;9.90;;
16407;SDS011;8313;49.894;8.084;2023-02-24T05:58:13;27.53;;;11.07;;
16407;SDS011;8313;49.894;8.084;2023-02-24T06:00:40;20.90;;;9.47;;
16407;SDS011;8313;49.894;8.084;2023-02-24T06:03:10;22.13;;;10.93;;
16407;SDS011;8313;49.894;8.084;2023-02-24T06:05:51;19.47;;;10.40;;
16407;SDS011;8313;49.894;8.084;2023-02-24T06:08:17;20.17;;;9.43;;
16407;SDS011;8313;49.894;8.084;2023-02-24T06:10:43;20.63;;;9.13;;
16407;SDS011;8313;49.894;8.084;2023-02-24T06:13:11;21.97;;;10.50;;
16407;SDS011;8313;49.894;8.084;2023-02-24T06:15:36;26.13;;;10.73;;
16407;SDS011;8313;49.894;8.084;2023-02-24T06:18:02;25.33;;;10.67;;
16407;SDS011;8313;49.894;8.084;2023-02-24T06:20:28;24.43;;;10.93;;
16407;SDS011;8313;49.894;8.084;2023-02-24T06:22:57;21.67;;;9.00;;
16407;SDS011;8313;49.894;8.084;2023-02-24T06:25:23;24.40;;;11.40;;
16407;SDS011;8313;49.894;8.084;2023-02-24T06:27:50;24.33;;;10.80;;
16407;SDS011;8313;49.894;8.084;2023-02-24T06:30:18;19.00;;;10.00;;
16407;SDS011;8313;49.894;8.084;2023-02-24T06:32:46;26.23;;;8.67;;
16407;SDS011;8313;49.894;8.084;2023-02-24T06:35:12;25.30;;;9.07;;
16407;SDS011;8313;49.894;8.084;2023-02-24T06:37:38;26.87;;;12.00;;
16407;SDS011;8313;49.894;8.084;2023-02-24T06:40:05;26.70;;;11.50;;
16407;SDS011;8313;49.894;8.084;2023-02-24T06:42:45;21.20;;;10.53;;
16407;SDS011;8313;49.894;8.084;2023-02-24T06:45:18;21.47;;;10.60;;
16407;SDS011;8313;49.894;8.084;2023-02-24T06:47:44;20.10;;;10.10;;
16407;SDS011;8313;49.894;8.084;2023-02-24T06:50:16;26.30;;;10.40;;
16407;SDS011;8313;49.894;8.084;2023-02-24T06:52:44;22.00;;;9.80;;
16407;SDS011;8313;49.894;8.084;2023-02-24T06:55:11;26.87;;;11.33;;
16407;SDS011;8313;49.894;8.084;2023-02-24T06:57:59;23.73;;;11.30;;
16407;SDS011;8313;49.894;8.084;2023-02-24T07:00:32;25.77;;;10.90;;
16407;SDS011;8313;49.894;8.084;2023-02-24T07:03:05;28.03;;;11.50;;
16407;SDS011;8313;49.894;8.084;2023-02-24T07:08:19;25.40;;;10.77;;
16407;SDS011;8313;49.894;8.084;2023-02-24T07:10:56;23.37;;;10.90;;
16407;SDS011;8313;49.894;8.084;2023-02-24T07:13:24;28.03;;;11.10;;
16407;SDS011;8313;49.894;8.084;2023-02-24T07:15:54;28.07;;;11.93;;
16407;SDS011;8313;49.894;8.084;2023-02-24T07:18:20;30.30;;;12.30;;
16407;SDS011;8313;49.894;8.084;2023-02-24T07:20:47;24.47;;;11.27;;
16407;SDS011;8313;49.894;8.084;2023-02-24T07:23:13;27.70;;;11.40;;
16407;SDS011;8313;49.894;8.084;2023-02-24T07:25:40;22.17;;;11.07;;
16407;SDS011;8313;49.894;8.084;2023-02-24T07:28:08;25.30;;;12.27;;
16407;SDS011;8313;49.894;8.084;2023-02-24T07:30:36;25.00;;;9.90;;
16407;SDS011;8313;49.894;8.084;2023-02-24T07:33:06;27.10;;;10.40;;
16407;SDS011;8313;49.894;8.084;2023-02-24T07:35:32;28.87;;;10.80;;
16407;SDS011;8313;49.894;8.084;2023-02-24T07:38:00;27.20;;;11.97;;
16407;SDS011;8313;49.894;8.084;2023-02-24T07:40:29;21.40;;;10.43;;
16407;SDS011;8313;49.894;8.084;2023-02-24T07:42:59;21.40;;;11.67;;
16407;SDS011;8313;49.894;8.084;2023-02-24T07:45:25;26.30;;;11.17;;
16407;SDS011;8313;49.894;8.084;2023-02-24T07:47:51;24.23;;;11.30;;
16407;SDS011;8313;49.894;8.084;2023-02-24T07:50:16;26.77;;;11.90;;
16407;SDS011;8313;49.894;8.084;2023-02-24T07:52:45;25.67;;;11.17;;
16407;SDS011;8313;49.894;8.084;2023-02-24T07:55:16;25.87;;;12.07;;
16407;SDS011;8313;49.894;8.084;2023-02-24T07:57:41;22.97;;;11.37;;
16407;SDS011;8313;49.894;8.084;2023-02-24T08:00:11;22.47;;;10.40;;
16407;SDS011;8313;49.894;8.084;2023-02-24T08:02:45;22.37;;;11.00;;
16407;SDS011;8313;49.894;8.084;2023-02-24T08:05:12;28.87;;;11.60;;
16407;SDS011;8313;49.894;8.084;2023-02-24T08:07:42;22.40;;;9.90;;
16407;SDS011;8313;49.894;8.084;2023-02-24T08:10:14;32.53;;;12.17;;
16407;SDS011;8313;49.894;8.084;2023-02-24T08:12:50;29.47;;;12.47;;
16407;SDS011;8313;49.894;8.084;2023-02-24T08:15:21;26.07;;;10.87;;
16407;SDS011;8313;49.894;8.084;2023-02-24T08:17:49;24.43;;;11.00;;
16407;SDS011;8313;49.894;8.084;2023-02-24T08:20:17;33.10;;;13.27;;
16407;SDS011;8313;49.894;8.084;2023-02-24T08:22:44;25.73;;;10.53;;
16407;SDS011;8313;49.894;8.084;2023-02-24T08:25:16;27.50;;;11.73;;
16407;SDS011;8313;49.894;8.084;2023-02-24T08:27:59;22.97;;;10.80;;
16407;SDS011;8313;49.894;8.084;2023-02-24T08:30:30;28.57;;;12.80;;
16407;SDS011;8313;49.894;8.084;2023-02-24T08:33:02;29.10;;;13.13;;
16407;SDS011;8313;49.894;8.084;2023-02-24T08:35:34;27.63;;;11.83;;
16407;SDS011;8313;49.894;8.084;2023-02-24T08:38:03;28.30;;;12.50;;
16407;SDS011;8313;49.894;8.084;2023-02-24T08:40:39;23.17;;;10.90;;
16407;SDS011;8313;49.894;8.084;2023-02-24T08:46:14;32.13;;;13.00;;
16407;SDS011;8313;49.894;8.084;2023-02-24T08:54:06;32.80;;;13.07;;
16407;SDS011;8313;49.894;8.084;2023-02-24T08:56:35;27.60;;;11.93;;
16407;SDS011;8313;49.894;8.084;2023-02-24T08:59:07;31.90;;;11.60;;
16407;SDS011;8313;49.894;8.084;2023-02-24T09:01:56;27.33;;;11.73;;
16407;SDS011;8313;49.894;8.084;2023-02-24T09:04:42;28.03;;;11.20;;
16407;SDS011;8313;49.894;8.084;2023-02-24T09:07:20;28.63;;;11.53;;
16407;SDS011;8313;49.894;8.084;2023-02-24T09:09:53;26.63;;;13.13;;
16407;SDS011;8313;49.894;8.084;2023-02-24T09:12:26;31.40;;;14.27;;
16407;SDS011;8313;49.894;8.084;2023-02-24T09:14:54;29.17;;;15.70;;
16407;SDS011;8313;49.894;8.084;2023-02-24T09:17:28;24.73;;;12.83;;
16407;SDS011;8313;49.894;8.084;2023-02-24T09:20:13;28.10;;;12.90;;
16407;SDS011;8313;49.894;8.084;2023-02-24T09:22:50;20.30;;;10.90;;
16407;SDS011;8313;49.894;8.084;2023-02-24T09:25:27;24.30;;;12.07;;
16407;SDS011;8313;49.894;8.084;2023-02-24T09:30:33;21.90;;;11.27;;
16407;SDS011;8313;49.894;8.084;2023-02-24T09:33:05;26.17;;;11.20;;
16407;SDS011;8313;49.894;8.084;2023-02-24T09:38:15;24.90;;;10.67;;
16407;SDS011;8313;49.894;8.084;2023-02-24T09:40:43;22.80;;;11.30;;
16407;SDS011;8313;49.894;8.084;2023-02-24T09:43:20;28.13;;;15.27;;
16407;SDS011;8313;49.894;8.084;2023-02-24T09:45:54;51.40;;;25.00;;
16407;SDS011;8313;49.894;8.084;2023-02-24T09:48:30;35.17;;;16.73;;
16407;SDS011;8313;49.894;8.084;2023-02-24T09:51:08;46.70;;;22.07;;
16407;SDS011;8313;49.894;8.084;2023-02-24T09:53:50;49.63;;;24.27;;
16407;SDS011;8313;49.894;8.084;2023-02-24T09:56:19;32.57;;;16.70;;
16407;SDS011;8313;49.894;8.084;2023-02-24T09:59:14;31.87;;;15.13;;
16407;SDS011;8313;49.894;8.084;2023-02-24T10:02:08;27.30;;;12.90;;
16407;SDS011;8313;49.894;8.084;2023-02-24T10:09:42;25.17;;;12.10;;
16407;SDS011;8313;49.894;8.084;2023-02-24T10:15:02;27.87;;;11.07;;
16407;SDS011;8313;49.894;8.084;2023-02-24T10:17:45;25.57;;;10.67;;
16407;SDS011;8313;49.894;8.084;2023-02-24T10:23:14;28.37;;;13.07;;
16407;SDS011;8313;49.894;8.084;2023-02-24T10:31:29;18.33;;;9.30;;
16407;SDS011;8313;49.894;8.084;2023-02-24T10:34:04;17.83;;;9.67;;
16407;SDS011;8313;49.894;8.084;2023-02-24T10:36:34;23.23;;;9.40;;
16407;SDS011;8313;49.894;8.084;2023-02-24T10:39:19;19.30;;;8.90;;
16407;SDS011;8313;49.894;8.084;2023-02-24T10:41:58;20.57;;;9.30;;
16407;SDS011;8313;49.894;8.084;2023-02-24T10:44:40;20.00;;;9.80;;
16407;SDS011;8313;49.894;8.084;2023-02-24T10:47:17;24.53;;;10.13;;
16407;SDS011;8313;49.894;8.084;2023-02-24T10:49:47;20.53;;;9.80;;
16407;SDS011;8313;49.894;8.084;2023-02-24T10:52:23;18.27;;;8.93;;
16407;SDS011;8313;49.894;8.084;2023-02-24T10:58:13;28.40;;;9.77;;
16407;SDS011;8313;49.894;8.084;2023-02-24T11:01:16;13.77;;;7.20;;
16407;SDS011;8313;49.894;8.084;2023-02-24T11:03:59;14.73;;;7.83;;
16407;SDS011;8313;49.894;8.084;2023-02-24T11:06:37;15.30;;;8.60;;
16407;SDS011;8313;49.894;8.084;2023-02-24T11:09:17;21.40;;;12.17;;
16407;SDS011;8313;49.894;8.084;2023-02-24T11:12:14;34.77;;;16.67;;
16407;SDS011;8313;49.894;8.084;2023-02-24T11:15:06;24.33;;;15.43;;
16407;SDS011;8313;49.894;8.084;2023-02-24T11:18:04;21.20;;;10.77;;
16407;SDS011;8313;49.894;8.084;2023-02-24T11:20:34;14.30;;;8.00;;
16407;SDS011;8313;49.894;8.084;2023-02-24T11:23:02;25.60;;;14.40;;
16407;SDS011;8313;49.894;8.084;2023-02-24T11:28:04;19.47;;;13.40;;
16407;SDS011;8313;49.894;8.084;2023-02-24T11:30:44;22.40;;;15.63;;
16407;SDS011;8313;49.894;8.084;2023-02-24T11:42:06;14.50;;;5.30;;
16407;SDS011;8313;49.894;8.084;2023-02-24T11:44:50;12.47;;;5.77;;
16407;SDS011;8313;49.894;8.084;2023-02-24T11:47:17;12.93;;;5.53;;
16407;SDS011;8313;49.894;8.084;2023-02-24T11:49:50;8.27;;;4.57;;
16407;SDS011;8313;49.894;8.084;2023-02-24T11:52:25;11.03;;;5.67;;
16407;SDS011;8313;49.894;8.084;2023-02-24T11:54:57;11.60;;;5.13;;
16407;SDS011;8313;49.894;8.084;2023-02-24T11:57:41;12.00;;;5.30;;
16407;SDS011;8313;49.894;8.084;2023-02-24T12:00:18;7.13;;;4.40;;
16407;SDS011;8313;49.894;8.084;2023-02-24T12:05:54;8.03;;;4.93;;
16407;SDS011;8313;49.894;8.084;2023-02-24T12:10:57;12.33;;;6.30;;
16407;SDS011;8313;49.894;8.084;2023-02-24T12:19:21;54.17;;;21.47;;
16407;SDS011;8313;49.894;8.084;2023-02-24T12:21:55;45.40;;;19.90;;
16407;SDS011;8313;49.894;8.084;2023-02-24T12:24:27;31.63;;;17.60;;
16407;SDS011;8313;49.894;8.084;2023-02-24T12:27:08;22.70;;;12.40;;
16407;SDS011;8313;49.894;8.084;2023-02-24T12:32:39;10.10;;;7.00;;
16407;SDS011;8313;49.894;8.084;2023-02-24T12:35:36;7.63;;;4.57;;
16407;SDS011;8313;49.894;8.084;2023-02-24T12:38:16;8.10;;;5.70;;
16407;SDS011;8313;49.894;8.084;2023-02-24T12:41:15;8.47;;;4.47;;
16407;SDS011;8313;49.894;8.084;2023-02-24T12:44:14;18.77;;;10.47;;
16407;SDS011;8313;49.894;8.084;2023-02-24T12:46:44;16.77;;;10.07;;
16407;SDS011;8313;49.894;8.084;2023-02-24T12:49:22;39.80;;;19.87;;
16407;SDS011;8313;49.894;8.084;2023-02-24T13:00:22;60.27;;;32.67;;
16407;SDS011;8313;49.894;8.084;2023-02-24T13:05:33;28.20;;;15.57;;
16407;SDS011;8313;49.894;8.084;2023-02-24T13:08:20;16.40;;;10.70;;
16407;SDS011;8313;49.894;8.084;2023-02-24T13:11:48;9.83;;;6.73;;
16407;SDS011;8313;49.894;8.084;2023-02-24T13:17:29;5.93;;;3.83;;
16407;SDS011;8313;49.894;8.084;2023-02-24T13:19:51;5.57;;;3.40;;
16407;SDS011;8313;49.894;8.084;2023-02-24T13:24:56;5.93;;;3.67;;
16407;SDS011;8313;49.894;8.084;2023-02-24T13:27:26;6.70;;;4.13;;
16407;SDS011;8313;49.894;8.084;2023-02-24T13:32:43;7.43;;;3.90;;
16407;SDS011;8313;49.894;8.084;2023-02-24T13:37:42;7.87;;;5.20;;
16407;SDS011;8313;49.894;8.084;2023-02-24T13:45:26;9.47;;;4.23;;
16407;SDS011;8313;49.894;8.084;2023-02-24T14:02:14;9.07;;;6.67;;
16407;SDS011;8313;49.894;8.084;2023-02-24T14:04:48;10.20;;;6.13;;
16407;SDS011;8313;49.894;8.084;2023-02-24T14:07:23;12.90;;;6.70;;
16407;SDS011;8313;49.894;8.084;2023-02-24T14:09:57;10.23;;;7.40;;
16407;SDS011;8313;49.894;8.084;2023-02-24T14:12:44;17.17;;;9.13;;
16407;SDS011;8313;49.894;8.084;2023-02-24T14:15:17;21.97;;;12.10;;
16407;SDS011;8313;49.894;8.084;2023-02-24T14:17:53;23.40;;;11.10;;
16407;SDS011;8313;49.894;8.084;2023-02-24T14:20:25;13.60;;;8.90;;
16407;SDS011;8313;49.894;8.084;2023-02-24T14:22:52;10.00;;;6.60;;
16407;SDS011;8313;49.894;8.084;2023-02-24T14:25:24;7.70;;;4.77;;
16407;SDS011;8313;49.894;8.084;2023-02-24T14:27:54;6.83;;;5.00;;
16407;SDS011;8313;49.894;8.084;2023-02-24T14:33:05;9.80;;;4.10;;
16407;SDS011;8313;49.894;8.084;2023-02-24T14:35:36;6.30;;;3.80;;
16407;SDS011;8313;49.894;8.084;2023-02-24T14:38:16;7.00;;;4.50;;
16407;SDS011;8313;49.894;8.084;2023-02-24T14:40:51;6.97;;;3.47;;
16407;SDS011;8313;49.894;8.084;2023-02-24T14:43:16;7.27;;;4.10;;
16407;SDS011;8313;49.894;8.084;2023-02-24T14:45:46;6.17;;;3.97;;
16407;SDS011;8313;49.894;8.084;2023-02-24T14:48:26;3.83;;;2.97;;
16407;SDS011;8313;49.894;8.084;2023-02-24T14:50:58;5.57;;;3.23;;
16407;SDS011;8313;49.894;8.084;2023-02-24T14:53:29;5.50;;;3.27;;
16407;SDS011;8313;49.894;8.084;2023-02-24T14:55:59;4.27;;;2.87;;
16407;SDS011;8313;49.894;8.084;2023-02-24T14:58:39;5.43;;;3.07;;
16407;SDS011;8313;49.894;8.084;2023-02-24T15:01:19;4.80;;;2.37;;
16407;SDS011;8313;49.894;8.084;2023-02-24T15:03:52;6.87;;;2.60;;
16407;SDS011;8313;49.894;8.084;2023-02-24T15:06:22;5.50;;;2.93;;
16407;SDS011;8313;49.894;8.084;2023-02-24T15:08:56;4.13;;;2.80;;
16407;SDS011;8313;49.894;8.084;2023-02-24T15:11:26;4.10;;;3.07;;
16407;SDS011;8313;49.894;8.084;2023-02-24T15:13:54;4.63;;;2.63;;
16407;SDS011;8313;49.894;8.084;2023-02-24T15:16:36;3.60;;;2.27;;
16407;SDS011;8313;49.894;8.084;2023-02-24T15:19:23;5.00;;;2.93;;
16407;SDS011;8313;49.894;8.084;2023-02-24T15:24:52;3.97;;;2.50;;
16407;SDS011;8313;49.894;8.084;2023-02-24T15:27:48;6.00;;;3.00;;
16407;SDS011;8313;49.894;8.084;2023-02-24T15:30:52;5.13;;;2.80;;
16407;SDS011;8313;49.894;8.084;2023-02-24T15:33:20;4.30;;;3.07;;
16407;SDS011;8313;49.894;8.084;2023-02-24T15:35:52;5.67;;;3.20;;
16407;SDS011;8313;49.894;8.084;2023-02-24T15:38:39;5.00;;;2.60;;
16407;SDS011;8313;49.894;8.084;2023-02-24T15:41:07;12.60;;;3.53;;
16407;SDS011;8313;49.894;8.084;2023-02-24T15:43:52;4.33;;;2.90;;
16407;SDS011;8313;49.894;8.084;2023-02-24T15:48:56;3.67;;;2.70;;
16407;SDS011;8313;49.894;8.084;2023-02-24T15:51:36;3.47;;;2.43;;
16407;SDS011;8313;49.894;8.084;2023-02-24T15:56:44;7.47;;;3.77;;
16407;SDS011;8313;49.894;8.084;2023-02-24T15:59:14;8.57;;;4.70;;
16407;SDS011;8313;49.894;8.084;2023-02-24T16:01:41;6.80;;;4.07;;
16407;SDS011;8313;49.894;8.084;2023-02-24T16:04:07;7.57;;;4.13;;
16407;SDS011;8313;49.894;8.084;2023-02-24T16:06:34;7.20;;;4.20;;
16407;SDS011;8313;49.894;8.084;2023-02-24T16:09:15;4.40;;;3.50;;
16407;SDS011;8313;49.894;8.084;2023-02-24T16:11:44;4.83;;;2.93;;
16407;SDS011;8313;49.894;8.084;2023-02-24T16:14:13;3.80;;;2.97;;
16407;SDS011;8313;49.894;8.084;2023-02-24T16:16:41;5.23;;;2.70;;
16407;SDS011;8313;49.894;8.084;2023-02-24T16:19:08;3.97;;;2.47;;
16407;SDS011;8313;49.894;8.084;2023-02-24T16:21:37;6.10;;;3.47;;
16407;SDS011;8313;49.894;8.084;2023-02-24T16:24:02;5.33;;;3.20;;
16407;SDS011;8313;49.894;8.084;2023-02-24T16:26:28;7.00;;;3.10;;
16407;SDS011;8313;49.894;8.084;2023-02-24T16:28:57;4.67;;;2.33;;
16407;SDS011;8313;49.894;8.084;2023-02-24T16:31:24;4.00;;;2.40;;
16407;SDS011;8313;49.894;8.084;2023-02-24T16:33:51;2.53;;;1.80;;
16407;SDS011;8313;49.894;8.084;2023-02-24T16:36:17;4.53;;;2.27;;
16407;SDS011;8313;49.894;8.084;2023-02-24T16:38:43;4.40;;;2.20;;
16407;SDS011;8313;49.894;8.084;2023-02-24T16:41:11;4.17;;;1.90;;
16407;SDS011;8313;49.894;8.084;2023-02-24T16:43:37;5.73;;;2.67;;
16407;SDS011;8313;49.894;8.084;2023-02-24T16:46:04;3.43;;;2.70;;
16407;SDS011;8313;49.894;8.084;2023-02-24T16:48:32;2.90;;;2.27;;
16407;SDS011;8313;49.894;8.084;2023-02-24T16:51:01;7.93;;;4.30;;
16407;SDS011;8313;49.894;8.084;2023-02-24T16:53:28;5.50;;;3.50;;
16407;SDS011;8313;49.894;8.084;2023-02-24T16:55:54;5.80;;;2.40;;
16407;SDS011;8313;49.894;8.084;2023-02-24T16:58:20;6.60;;;1.90;;
16407;SDS011;8313;49.894;8.084;2023-02-24T17:00:47;3.30;;;1.93;;
16407;SDS011;8313;49.894;8.084;2023-02-24T17:03:23;2.70;;;2.23;;
16407;SDS011;8313;49.894;8.084;2023-02-24T17:05:50;2.00;;;1.80;;
16407;SDS011;8313;49.894;8.084;2023-02-24T17:08:17;3.50;;;2.37;;
16407;SDS011;8313;49.894;8.084;2023-02-24T17:10:43;2.97;;;2.67;;
16407;SDS011;8313;49.894;8.084;2023-02-24T17:13:10;3.53;;;2.33;;
16407;SDS011;8313;49.894;8.084;2023-02-24T17:15:41;6.53;;;3.50;;
16407;SDS011;8313;49.894;8.084;2023-02-24T17:18:07;3.27;;;2.67;;
16407;SDS011;8313;49.894;8.084;2023-02-24T17:20:34;4.90;;;3.00;;
16407;SDS011;8313;49.894;8.084;2023-02-24T17:23:00;4.53;;;2.83;;
16407;SDS011;8313;49.894;8.084;2023-02-24T17:25:27;4.67;;;1.83;;
16407;SDS011;8313;49.894;8.084;2023-02-24T17:27:55;3.40;;;2.20;;
16407;SDS011;8313;49.894;8.084;2023-02-24T17:30:22;5.47;;;3.00;;
16407;SDS011;8313;49.894;8.084;2023-02-24T17:32:53;4.23;;;3.23;;
16407;SDS011;8313;49.894;8.084;2023-02-24T17:35:18;6.50;;;2.90;;
16407;SDS011;8313;49.894;8.084;2023-02-24T17:37:44;3.80;;;2.60;;
16407;SDS011;8313;49.894;8.084;2023-02-24T17:40:10;3.03;;;2.20;;
16407;SDS011;8313;49.894;8.084;2023-02-24T17:42:37;4.30;;;2.27;;
16407;SDS011;8313;49.894;8.084;2023-02-24T17:45:04;2.60;;;2.07;;
16407;SDS011;8313;49.894;8.084;2023-02-24T17:47:30;3.00;;;1.87;;
16407;SDS011;8313;49.894;8.084;2023-02-24T17:49:57;5.80;;;2.70;;
16407;SDS011;8313;49.894;8.084;2023-02-24T17:52:23;4.83;;;3.10;;
16407;SDS011;8313;49.894;8.084;2023-02-24T17:54:48;3.37;;;2.17;;
16407;SDS011;8313;49.894;8.084;2023-02-24T17:57:14;3.93;;;2.33;;
16407;SDS011;8313;49.894;8.084;2023-02-24T17:59:43;10.50;;;6.67;;
16407;SDS011;8313;49.894;8.084;2023-02-24T18:02:13;9.17;;;5.10;;